Aérodrome :
LOGIN :

S'inscrire | Disclaimer

   EN    FR    IT 

 










Légende :    VFR   VFR Marginal   IFR   IFR Intensif   IFR Très Intensif
Visi : 
Plafond : 
>= 8 km
>= 3000ft
5 à 8 km
1000 à 3000 ft
1500m à 5 km
500 à 1000 ft
800 à 1500m
200 à 500 ft
< 800m
< 200 ft
Symboles :   Orages  Brouillard  Fortes neiges  Fortes précipitations  Vent > 20 kt
SIGMETs :   Divers  Orages  Givrage  Turbulence  Onde Orograph.  Cendres Volcan.






- Altitude de l'aérodrome : 218 ft


EGYD - RAF Cranwell

DERNIER METAR :
  • 230820Z 20005KT 0500 FG FEW000 06/06 Q1016 BECMG 5000 BR RMK RED BECMG WHT

METARs EXPIRÉS :
  • 230810Z 19006KT 2000 0500E BCFG FEW000 06/06 Q1016 BECMG 5000 BR RMK RED BECMG WHT
  • 230750Z 16008KT 3000 1200E BR FEW050 04/04 Q1016 BECMG 9999 NSW RMK AMB BECMG BLU
  • 230720Z 17007KT 0600 FG FEW050 02/02 Q1016 BECMG 5000 BR RMK RED BECMG WHT
  • 230650Z 16006KT 0700 FG FEW050 03/02 Q1016 RED TEMPO 2000 BR RMK RED TEMPO YLO2
  • 230621Z 17006KT 1200 BR FEW050 03/03 Q1017 TEMPO 0500 FG RMK AMB TEMPO RED
  • 230608Z 17005KT 5000 0700E PRFG FEW050 03/03 Q1017 TEMPO 4000 BR RMK RED TEMPO GRN
  • 230550Z 19003KT 6000 2500E MIFG FEW050 04/04 Q1016 TEMPO 0500 FG VV/// RMK YLO1 TEMPO RED

TAF TAF EGYD
Valide du 23 à 06h jusqu'au 23 à 15h UTC


230537Z 2306/2315 16005KT 5000 BR FEW045
PROB30 2306/2308 0500 FG VV///
BECMG 2308/2310 9999 NSW
PROB30
TEMPO 2312/2315 SCT016



MET'MAP, la Météo Aéronautique d'un coup d'oeil ! - Copyright ORBIFLY Décembre 2007 - Disclaimer

ORBIFLY MET'MAP TEAM :

Programmation & Développement : Alexandra Zaïnal
Conception & Développement : Baudouin d'Aumeries
Co-Programmation & Développement : Marc-Olivier Méhu
Soutien technique & logistique : Manuel Goepfert

Contact : metmap@orbifly.com




SOURCES & CREDITS :

   NOAA